Terminal Aerodrome Forecast
Issued by NWS

Current Version | Previous Version | Graphics & Text | Print | Product List | Glossary On
Versions: 1 2 3 4 5 6 7 8 9 10 11 12 13 14 15 16 17 18 19 20 21
314
FTUS41 KRLX 250525
TAFCKB
TAF
KCKB 250525Z 2506/2606 00000KT P6SM SKC
     FM251300 VRB03KT P6SM SKC
     FM252200 22004KT P6SM SCT045
     FM260300 VRB03KT P6SM BKN080=

USA.gov is the U.S. government's official web portal to all federal, state and local government web resources and services.